sensor_id;sensor_type;location;lat;lon;timestamp;pressure;altitude;pressure_sealevel;temperature;humidity
5595;BME280;1003;48.002;7.788;2023-04-19T00:00:21;99559.06;;;7.77;100.00
5595;BME280;1003;48.002;7.788;2023-04-19T00:02:48;99568.31;;;7.90;100.00
5595;BME280;1003;48.002;7.788;2023-04-19T00:05:15;99556.69;;;7.92;100.00
5595;BME280;1003;48.002;7.788;2023-04-19T00:07:43;99550.75;;;7.81;100.00
5595;BME280;1003;48.002;7.788;2023-04-19T00:10:10;99550.72;;;7.76;100.00
5595;BME280;1003;48.002;7.788;2023-04-19T00:12:37;99545.56;;;7.56;100.00
5595;BME280;1003;48.002;7.788;2023-04-19T00:15:05;99555.47;;;7.47;100.00
5595;BME280;1003;48.002;7.788;2023-04-19T00:17:34;99555.28;;;7.23;100.00
5595;BME280;1003;48.002;7.788;2023-04-19T00:20:02;99555.19;;;7.14;100.00
5595;BME280;1003;48.002;7.788;2023-04-19T00:22:30;99555.81;;;6.93;100.00
5595;BME280;1003;48.002;7.788;2023-04-19T00:24:57;99565.53;;;6.70;100.00
5595;BME280;1003;48.002;7.788;2023-04-19T00:27:24;99569.44;;;6.49;100.00
5595;BME280;1003;48.002;7.788;2023-04-19T00:29:51;99570.13;;;6.36;100.00
5595;BME280;1003;48.002;7.788;2023-04-19T00:32:18;99577.41;;;6.22;100.00
5595;BME280;1003;48.002;7.788;2023-04-19T00:34:47;99591.56;;;6.22;100.00
5595;BME280;1003;48.002;7.788;2023-04-19T00:37:14;99594.78;;;6.15;100.00
5595;BME280;1003;48.002;7.788;2023-04-19T00:39:41;99597.06;;;6.01;100.00
5595;BME280;1003;48.002;7.788;2023-04-19T00:42:08;99594.66;;;6.07;100.00
5595;BME280;1003;48.002;7.788;2023-04-19T00:44:35;99593.88;;;6.10;100.00
5595;BME280;1003;48.002;7.788;2023-04-19T00:47:02;99586.06;;;5.90;100.00
5595;BME280;1003;48.002;7.788;2023-04-19T00:49:30;99578.78;;;6.00;100.00
5595;BME280;1003;48.002;7.788;2023-04-19T00:51:59;99571.25;;;5.97;100.00
5595;BME280;1003;48.002;7.788;2023-04-19T00:54:26;99571.88;;;5.86;100.00
5595;BME280;1003;48.002;7.788;2023-04-19T00:56:53;99566.03;;;5.85;100.00
5595;BME280;1003;48.002;7.788;2023-04-19T00:59:22;99574.13;;;5.70;100.00
5595;BME280;1003;48.002;7.788;2023-04-19T01:01:50;99572.19;;;5.54;100.00
5595;BME280;1003;48.002;7.788;2023-04-19T01:04:17;99575.41;;;5.47;100.00
5595;BME280;1003;48.002;7.788;2023-04-19T01:06:44;99581.16;;;5.43;100.00
5595;BME280;1003;48.002;7.788;2023-04-19T01:09:13;99596.75;;;5.33;100.00
5595;BME280;1003;48.002;7.788;2023-04-19T01:11:40;99599.50;;;5.48;100.00
5595;BME280;1003;48.002;7.788;2023-04-19T01:14:07;99616.31;;;5.58;100.00
5595;BME280;1003;48.002;7.788;2023-04-19T01:16:34;99628.47;;;5.40;100.00
5595;BME280;1003;48.002;7.788;2023-04-19T01:19:02;99626.53;;;5.25;100.00
5595;BME280;1003;48.002;7.788;2023-04-19T01:21:29;99636.38;;;5.19;100.00
5595;BME280;1003;48.002;7.788;2023-04-19T01:23:58;99647.91;;;5.12;100.00
5595;BME280;1003;48.002;7.788;2023-04-19T01:26:25;99644.41;;;5.04;100.00
5595;BME280;1003;48.002;7.788;2023-04-19T01:28:52;99647.56;;;4.95;100.00
5595;BME280;1003;48.002;7.788;2023-04-19T01:31:19;99661.31;;;5.19;100.00
5595;BME280;1003;48.002;7.788;2023-04-19T01:33:46;99675.00;;;5.41;100.00
5595;BME280;1003;48.002;7.788;2023-04-19T01:36:13;99679.16;;;5.40;100.00
5595;BME280;1003;48.002;7.788;2023-04-19T01:38:40;99697.44;;;5.41;100.00
5595;BME280;1003;48.002;7.788;2023-04-19T01:41:09;99696.75;;;5.48;100.00
5595;BME280;1003;48.002;7.788;2023-04-19T01:43:36;99708.47;;;5.53;100.00
5595;BME280;1003;48.002;7.788;2023-04-19T01:46:03;99716.88;;;5.57;100.00
5595;BME280;1003;48.002;7.788;2023-04-19T01:48:30;99725.41;;;5.70;100.00
5595;BME280;1003;48.002;7.788;2023-04-19T01:50:57;99730.56;;;5.79;100.00
5595;BME280;1003;48.002;7.788;2023-04-19T01:53:24;99734.28;;;5.98;100.00
5595;BME280;1003;48.002;7.788;2023-04-19T01:55:51;99736.88;;;6.04;100.00
5595;BME280;1003;48.002;7.788;2023-04-19T01:58:20;99739.06;;;5.89;100.00
5595;BME280;1003;48.002;7.788;2023-04-19T02:00:47;99733.84;;;5.76;100.00
5595;BME280;1003;48.002;7.788;2023-04-19T02:03:14;99735.19;;;5.59;100.00
5595;BME280;1003;48.002;7.788;2023-04-19T02:05:41;99740.94;;;5.55;100.00
5595;BME280;1003;48.002;7.788;2023-04-19T02:08:08;99751.34;;;5.78;100.00
5595;BME280;1003;48.002;7.788;2023-04-19T02:10:35;99756.66;;;5.95;100.00
5595;BME280;1003;48.002;7.788;2023-04-19T02:13:02;99759.00;;;5.89;100.00
5595;BME280;1003;48.002;7.788;2023-04-19T02:15:30;99764.66;;;5.80;100.00
5595;BME280;1003;48.002;7.788;2023-04-19T02:17:57;99762.78;;;5.68;100.00
5595;BME280;1003;48.002;7.788;2023-04-19T02:20:25;99763.28;;;5.50;100.00
5595;BME280;1003;48.002;7.788;2023-04-19T02:22:52;99769.09;;;5.51;100.00
5595;BME280;1003;48.002;7.788;2023-04-19T02:25:19;99767.44;;;5.50;100.00
5595;BME280;1003;48.002;7.788;2023-04-19T02:27:46;99772.38;;;5.48;100.00
5595;BME280;1003;48.002;7.788;2023-04-19T02:30:14;99770.56;;;5.40;100.00
5595;BME280;1003;48.002;7.788;2023-04-19T02:32:42;99786.34;;;5.40;100.00
5595;BME280;1003;48.002;7.788;2023-04-19T02:35:09;99787.69;;;5.26;100.00
5595;BME280;1003;48.002;7.788;2023-04-19T02:37:38;99791.94;;;5.30;100.00
5595;BME280;1003;48.002;7.788;2023-04-19T02:40:06;99799.88;;;5.12;100.00
5595;BME280;1003;48.002;7.788;2023-04-19T02:42:34;99803.00;;;5.04;100.00
5595;BME280;1003;48.002;7.788;2023-04-19T02:45:01;99813.31;;;4.83;100.00
5595;BME280;1003;48.002;7.788;2023-04-19T02:47:28;99813.78;;;4.68;100.00
5595;BME280;1003;48.002;7.788;2023-04-19T02:49:56;99809.81;;;4.74;100.00
5595;BME280;1003;48.002;7.788;2023-04-19T02:52:26;99809.44;;;4.58;100.00
5595;BME280;1003;48.002;7.788;2023-04-19T02:54:53;99816.78;;;4.53;100.00
5595;BME280;1003;48.002;7.788;2023-04-19T02:57:20;99825.63;;;4.77;100.00
5595;BME280;1003;48.002;7.788;2023-04-19T02:59:47;99836.28;;;4.71;100.00
5595;BME280;1003;48.002;7.788;2023-04-19T03:02:14;99836.91;;;4.62;100.00
5595;BME280;1003;48.002;7.788;2023-04-19T03:04:41;99846.38;;;4.77;100.00
5595;BME280;1003;48.002;7.788;2023-04-19T03:07:10;99843.53;;;4.62;100.00
5595;BME280;1003;48.002;7.788;2023-04-19T03:09:37;99860.19;;;4.63;100.00
5595;BME280;1003;48.002;7.788;2023-04-19T03:12:06;99867.38;;;4.87;100.00
5595;BME280;1003;48.002;7.788;2023-04-19T03:14:33;99868.63;;;4.69;100.00
5595;BME280;1003;48.002;7.788;2023-04-19T03:17:01;99873.06;;;4.48;100.00
5595;BME280;1003;48.002;7.788;2023-04-19T03:19:28;99875.19;;;4.67;100.00
5595;BME280;1003;48.002;7.788;2023-04-19T03:21:55;99892.16;;;4.49;100.00
5595;BME280;1003;48.002;7.788;2023-04-19T03:24:28;99892.34;;;4.57;100.00
5595;BME280;1003;48.002;7.788;2023-04-19T03:26:56;99892.19;;;4.51;100.00
5595;BME280;1003;48.002;7.788;2023-04-19T03:29:23;99894.41;;;4.40;100.00
5595;BME280;1003;48.002;7.788;2023-04-19T03:31:50;99906.03;;;4.41;100.00
5595;BME280;1003;48.002;7.788;2023-04-19T03:34:17;99918.41;;;4.36;100.00
5595;BME280;1003;48.002;7.788;2023-04-19T03:36:44;99922.84;;;4.18;100.00
5595;BME280;1003;48.002;7.788;2023-04-19T03:39:11;99933.81;;;4.25;100.00
5595;BME280;1003;48.002;7.788;2023-04-19T03:41:40;99949.34;;;4.16;100.00
5595;BME280;1003;48.002;7.788;2023-04-19T03:44:07;99955.66;;;4.05;100.00
5595;BME280;1003;48.002;7.788;2023-04-19T03:46:34;99966.09;;;4.21;100.00
5595;BME280;1003;48.002;7.788;2023-04-19T03:49:01;99970.91;;;4.15;100.00
5595;BME280;1003;48.002;7.788;2023-04-19T03:51:28;99993.16;;;4.11;100.00
5595;BME280;1003;48.002;7.788;2023-04-19T03:53:56;100003.72;;;4.32;100.00
5595;BME280;1003;48.002;7.788;2023-04-19T03:56:23;100027.69;;;4.30;100.00
5595;BME280;1003;48.002;7.788;2023-04-19T03:58:51;100042.03;;;4.37;100.00
5595;BME280;1003;48.002;7.788;2023-04-19T04:01:18;100055.69;;;4.52;100.00
5595;BME280;1003;48.002;7.788;2023-04-19T04:03:46;100077.97;;;4.47;100.00
5595;BME280;1003;48.002;7.788;2023-04-19T04:06:13;100113.91;;;4.57;100.00
5595;BME280;1003;48.002;7.788;2023-04-19T04:08:40;100128.19;;;4.62;100.00
5595;BME280;1003;48.002;7.788;2023-04-19T04:11:07;100140.88;;;4.70;100.00
5595;BME280;1003;48.002;7.788;2023-04-19T04:13:34;100152.72;;;4.79;100.00
5595;BME280;1003;48.002;7.788;2023-04-19T04:16:03;100181.06;;;4.82;100.00
5595;BME280;1003;48.002;7.788;2023-04-19T04:18:30;100190.41;;;4.89;100.00
5595;BME280;1003;48.002;7.788;2023-04-19T04:20:57;100202.84;;;4.89;100.00
5595;BME280;1003;48.002;7.788;2023-04-19T04:23:25;100215.44;;;4.94;100.00
5595;BME280;1003;48.002;7.788;2023-04-19T04:25:56;100226.53;;;5.04;100.00
5595;BME280;1003;48.002;7.788;2023-04-19T04:28:25;100242.56;;;5.12;100.00
5595;BME280;1003;48.002;7.788;2023-04-19T04:30:53;100258.00;;;5.29;100.00
5595;BME280;1003;48.002;7.788;2023-04-19T04:33:24;100262.19;;;5.30;100.00
5595;BME280;1003;48.002;7.788;2023-04-19T04:35:52;100284.41;;;5.22;100.00
5595;BME280;1003;48.002;7.788;2023-04-19T04:38:19;100287.78;;;5.24;100.00
5595;BME280;1003;48.002;7.788;2023-04-19T04:40:49;100285.28;;;5.24;100.00
5595;BME280;1003;48.002;7.788;2023-04-19T04:43:18;100298.72;;;5.29;100.00
5595;BME280;1003;48.002;7.788;2023-04-19T04:45:45;100304.72;;;5.36;100.00
5595;BME280;1003;48.002;7.788;2023-04-19T04:48:12;100319.00;;;5.41;100.00
5595;BME280;1003;48.002;7.788;2023-04-19T04:50:41;100314.81;;;5.40;100.00
5595;BME280;1003;48.002;7.788;2023-04-19T04:53:09;100317.31;;;5.40;100.00
5595;BME280;1003;48.002;7.788;2023-04-19T04:55:37;100329.75;;;5.39;100.00
5595;BME280;1003;48.002;7.788;2023-04-19T04:58:04;100339.22;;;5.50;100.00
5595;BME280;1003;48.002;7.788;2023-04-19T05:00:31;100340.03;;;5.49;100.00
5595;BME280;1003;48.002;7.788;2023-04-19T05:02:58;100338.88;;;5.38;100.00
5595;BME280;1003;48.002;7.788;2023-04-19T05:05:26;100339.84;;;5.43;100.00
5595;BME280;1003;48.002;7.788;2023-04-19T05:07:55;100329.47;;;5.30;100.00
5595;BME280;1003;48.002;7.788;2023-04-19T05:10:22;100337.47;;;5.48;100.00
5595;BME280;1003;48.002;7.788;2023-04-19T05:12:49;100340.91;;;5.51;100.00
5595;BME280;1003;48.002;7.788;2023-04-19T05:15:16;100343.69;;;5.61;100.00
5595;BME280;1003;48.002;7.788;2023-04-19T05:17:43;100342.88;;;5.62;100.00
5595;BME280;1003;48.002;7.788;2023-04-19T05:20:10;100321.03;;;5.83;100.00
5595;BME280;1003;48.002;7.788;2023-04-19T05:22:37;100317.16;;;5.93;100.00
5595;BME280;1003;48.002;7.788;2023-04-19T05:25:08;100336.09;;;6.16;100.00
5595;BME280;1003;48.002;7.788;2023-04-19T05:27:36;100330.28;;;6.17;100.00
5595;BME280;1003;48.002;7.788;2023-04-19T05:30:04;100337.31;;;6.32;100.00
5595;BME280;1003;48.002;7.788;2023-04-19T05:32:32;100319.44;;;6.48;100.00
5595;BME280;1003;48.002;7.788;2023-04-19T05:34:59;100311.41;;;6.62;100.00
5595;BME280;1003;48.002;7.788;2023-04-19T05:37:26;100314.97;;;6.71;100.00
5595;BME280;1003;48.002;7.788;2023-04-19T05:39:53;100317.69;;;6.79;100.00
5595;BME280;1003;48.002;7.788;2023-04-19T05:42:21;100313.91;;;6.96;100.00
5595;BME280;1003;48.002;7.788;2023-04-19T05:44:48;100310.00;;;7.09;100.00
5595;BME280;1003;48.002;7.788;2023-04-19T05:47:15;100308.59;;;7.20;100.00
5595;BME280;1003;48.002;7.788;2023-04-19T05:49:42;100307.22;;;7.33;100.00
5595;BME280;1003;48.002;7.788;2023-04-19T05:52:09;100310.81;;;7.47;100.00
5595;BME280;1003;48.002;7.788;2023-04-19T05:54:36;100311.94;;;7.60;100.00
5595;BME280;1003;48.002;7.788;2023-04-19T05:57:03;100299.59;;;7.69;100.00
5595;BME280;1003;48.002;7.788;2023-04-19T05:59:33;100288.09;;;7.77;100.00
5595;BME280;1003;48.002;7.788;2023-04-19T06:02:00;100280.44;;;7.70;100.00
5595;BME280;1003;48.002;7.788;2023-04-19T06:04:27;100264.19;;;7.93;100.00
5595;BME280;1003;48.002;7.788;2023-04-19T06:06:54;100243.13;;;7.82;100.00
5595;BME280;1003;48.002;7.788;2023-04-19T06:09:21;100234.16;;;7.95;100.00
5595;BME280;1003;48.002;7.788;2023-04-19T06:11:48;100220.78;;;7.91;100.00
5595;BME280;1003;48.002;7.788;2023-04-19T06:14:15;100221.09;;;8.12;100.00
5595;BME280;1003;48.002;7.788;2023-04-19T06:16:44;100200.19;;;8.07;100.00
5595;BME280;1003;48.002;7.788;2023-04-19T06:19:11;100185.00;;;7.98;100.00
5595;BME280;1003;48.002;7.788;2023-04-19T06:21:39;100177.00;;;8.21;100.00
5595;BME280;1003;48.002;7.788;2023-04-19T06:24:06;100156.88;;;8.13;100.00
5595;BME280;1003;48.002;7.788;2023-04-19T06:26:33;100154.19;;;8.57;100.00
5595;BME280;1003;48.002;7.788;2023-04-19T06:29:01;100129.91;;;8.51;100.00
5595;BME280;1003;48.002;7.788;2023-04-19T06:31:28;100122.41;;;8.53;100.00
5595;BME280;1003;48.002;7.788;2023-04-19T06:33:56;100106.88;;;8.80;100.00
5595;BME280;1003;48.002;7.788;2023-04-19T06:36:23;100095.47;;;9.05;100.00
5595;BME280;1003;48.002;7.788;2023-04-19T06:38:50;100075.50;;;9.15;100.00
5595;BME280;1003;48.002;7.788;2023-04-19T06:41:17;100042.09;;;9.19;100.00
5595;BME280;1003;48.002;7.788;2023-04-19T06:43:44;99994.22;;;8.93;100.00
5595;BME280;1003;48.002;7.788;2023-04-19T06:46:11;99960.97;;;9.17;100.00
5595;BME280;1003;48.002;7.788;2023-04-19T06:48:40;99945.25;;;9.37;100.00
5595;BME280;1003;48.002;7.788;2023-04-19T06:51:09;99909.41;;;9.58;100.00
5595;BME280;1003;48.002;7.788;2023-04-19T06:53:36;99869.34;;;9.79;100.00
5595;BME280;1003;48.002;7.788;2023-04-19T06:56:05;99816.59;;;9.64;100.00
5595;BME280;1003;48.002;7.788;2023-04-19T06:58:32;99786.53;;;9.93;100.00
5595;BME280;1003;48.002;7.788;2023-04-19T07:00:59;99750.59;;;10.18;100.00
5595;BME280;1003;48.002;7.788;2023-04-19T07:03:26;99709.56;;;10.36;100.00
5595;BME280;1003;48.002;7.788;2023-04-19T07:05:54;99681.91;;;10.47;100.00
5595;BME280;1003;48.002;7.788;2023-04-19T07:08:24;99633.38;;;10.36;100.00
5595;BME280;1003;48.002;7.788;2023-04-19T07:10:52;99620.84;;;10.23;100.00
5595;BME280;1003;48.002;7.788;2023-04-19T07:13:21;99640.03;;;10.50;100.00
5595;BME280;1003;48.002;7.788;2023-04-19T07:15:48;99645.91;;;10.49;100.00
5595;BME280;1003;48.002;7.788;2023-04-19T07:18:15;99641.66;;;10.68;100.00
5595;BME280;1003;48.002;7.788;2023-04-19T07:20:42;99624.94;;;10.57;100.00
5595;BME280;1003;48.002;7.788;2023-04-19T07:23:14;99614.03;;;10.58;100.00
5595;BME280;1003;48.002;7.788;2023-04-19T07:25:42;99618.84;;;11.11;100.00
5595;BME280;1003;48.002;7.788;2023-04-19T07:28:09;99602.88;;;11.18;100.00
5595;BME280;1003;48.002;7.788;2023-04-19T07:30:36;99574.53;;;10.89;100.00
5595;BME280;1003;48.002;7.788;2023-04-19T07:33:03;99560.84;;;11.29;100.00
5595;BME280;1003;48.002;7.788;2023-04-19T07:35:33;99550.59;;;11.57;100.00
5595;BME280;1003;48.002;7.788;2023-04-19T07:38:01;99526.03;;;11.80;100.00
5595;BME280;1003;48.002;7.788;2023-04-19T07:40:28;99521.16;;;11.62;100.00
5595;BME280;1003;48.002;7.788;2023-04-19T07:42:56;99508.41;;;11.85;100.00
5595;BME280;1003;48.002;7.788;2023-04-19T07:45:23;99499.94;;;11.92;100.00
5595;BME280;1003;48.002;7.788;2023-04-19T07:47:50;99499.22;;;12.52;100.00
5595;BME280;1003;48.002;7.788;2023-04-19T07:50:18;99496.78;;;12.46;100.00
5595;BME280;1003;48.002;7.788;2023-04-19T07:52:45;99430.13;;;12.02;100.00
5595;BME280;1003;48.002;7.788;2023-04-19T07:55:12;99440.53;;;12.42;100.00
5595;BME280;1003;48.002;7.788;2023-04-19T07:57:39;99410.50;;;12.25;100.00
5595;BME280;1003;48.002;7.788;2023-04-19T08:00:13;99404.94;;;12.02;100.00
5595;BME280;1003;48.002;7.788;2023-04-19T08:02:42;99402.69;;;12.45;100.00
5595;BME280;1003;48.002;7.788;2023-04-19T08:05:10;99381.59;;;12.51;100.00
5595;BME280;1003;48.002;7.788;2023-04-19T08:07:37;99373.81;;;12.66;100.00
5595;BME280;1003;48.002;7.788;2023-04-19T08:10:07;99378.16;;;11.96;100.00
5595;BME280;1003;48.002;7.788;2023-04-19T08:12:34;99380.97;;;11.69;100.00
5595;BME280;1003;48.002;7.788;2023-04-19T08:15:02;99386.97;;;11.55;100.00
5595;BME280;1003;48.002;7.788;2023-04-19T08:17:30;99394.94;;;11.94;100.00
5595;BME280;1003;48.002;7.788;2023-04-19T08:20:01;99406.25;;;12.30;100.00
5595;BME280;1003;48.002;7.788;2023-04-19T08:22:28;99393.19;;;12.63;100.00
5595;BME280;1003;48.002;7.788;2023-04-19T08:24:55;99377.19;;;12.03;100.00
5595;BME280;1003;48.002;7.788;2023-04-19T08:27:22;99378.72;;;12.15;100.00
5595;BME280;1003;48.002;7.788;2023-04-19T08:29:51;99386.00;;;12.37;100.00
5595;BME280;1003;48.002;7.788;2023-04-19T08:32:18;99367.81;;;12.16;100.00
5595;BME280;1003;48.002;7.788;2023-04-19T08:34:47;99363.78;;;12.03;100.00
5595;BME280;1003;48.002;7.788;2023-04-19T08:37:15;99360.91;;;11.60;100.00
5595;BME280;1003;48.002;7.788;2023-04-19T08:39:42;99380.19;;;11.61;100.00
5595;BME280;1003;48.002;7.788;2023-04-19T08:42:09;99391.31;;;11.43;100.00
5595;BME280;1003;48.002;7.788;2023-04-19T08:44:37;99409.53;;;11.65;100.00
5595;BME280;1003;48.002;7.788;2023-04-19T08:47:07;99413.69;;;11.67;100.00
5595;BME280;1003;48.002;7.788;2023-04-19T08:49:34;99408.25;;;12.07;100.00
5595;BME280;1003;48.002;7.788;2023-04-19T08:52:05;99393.50;;;11.73;100.00
5595;BME280;1003;48.002;7.788;2023-04-19T08:54:34;99404.56;;;12.32;100.00
5595;BME280;1003;48.002;7.788;2023-04-19T08:57:01;99397.25;;;12.70;100.00
5595;BME280;1003;48.002;7.788;2023-04-19T08:59:29;99377.50;;;12.44;100.00
5595;BME280;1003;48.002;7.788;2023-04-19T09:01:59;99371.16;;;12.15;100.00
5595;BME280;1003;48.002;7.788;2023-04-19T09:04:27;99377.34;;;12.53;100.00
5595;BME280;1003;48.002;7.788;2023-04-19T09:06:54;99370.09;;;12.33;100.00
5595;BME280;1003;48.002;7.788;2023-04-19T09:09:27;99354.22;;;12.26;100.00
5595;BME280;1003;48.002;7.788;2023-04-19T09:11:54;99363.47;;;12.27;100.00
5595;BME280;1003;48.002;7.788;2023-04-19T09:14:24;99361.84;;;12.77;100.00
5595;BME280;1003;48.002;7.788;2023-04-19T09:16:51;99328.81;;;12.40;100.00
5595;BME280;1003;48.002;7.788;2023-04-19T09:19:19;99340.03;;;12.76;100.00
5595;BME280;1003;48.002;7.788;2023-04-19T09:21:46;99332.59;;;12.67;100.00
5595;BME280;1003;48.002;7.788;2023-04-19T09:24:16;99344.69;;;12.47;100.00
5595;BME280;1003;48.002;7.788;2023-04-19T09:26:54;99346.72;;;12.77;100.00
5595;BME280;1003;48.002;7.788;2023-04-19T09:29:22;99337.44;;;12.81;100.00
5595;BME280;1003;48.002;7.788;2023-04-19T09:31:58;99326.34;;;12.35;100.00
5595;BME280;1003;48.002;7.788;2023-04-19T09:34:25;99343.47;;;12.69;100.00
5595;BME280;1003;48.002;7.788;2023-04-19T09:36:54;99336.00;;;13.14;100.00
5595;BME280;1003;48.002;7.788;2023-04-19T09:39:31;99340.00;;;13.27;100.00
5595;BME280;1003;48.002;7.788;2023-04-19T09:41:59;99328.16;;;12.81;100.00
5595;BME280;1003;48.002;7.788;2023-04-19T09:44:27;99332.69;;;13.10;100.00
5595;BME280;1003;48.002;7.788;2023-04-19T09:46:54;99327.03;;;13.46;100.00
5595;BME280;1003;48.002;7.788;2023-04-19T09:49:23;99319.13;;;13.61;100.00
5595;BME280;1003;48.002;7.788;2023-04-19T09:51:53;99310.81;;;13.96;100.00
5595;BME280;1003;48.002;7.788;2023-04-19T09:54:22;99300.66;;;13.99;100.00
5595;BME280;1003;48.002;7.788;2023-04-19T09:56:50;99284.53;;;13.23;100.00
5595;BME280;1003;48.002;7.788;2023-04-19T09:59:19;99289.13;;;13.02;100.00
5595;BME280;1003;48.002;7.788;2023-04-19T10:01:52;99300.97;;;13.44;100.00
5595;BME280;1003;48.002;7.788;2023-04-19T10:04:21;99308.47;;;13.88;100.00
5595;BME280;1003;48.002;7.788;2023-04-19T10:06:49;99297.03;;;14.11;100.00
5595;BME280;1003;48.002;7.788;2023-04-19T10:09:18;99290.06;;;14.21;100.00
5595;BME280;1003;48.002;7.788;2023-04-19T10:11:49;99269.06;;;14.17;100.00
5595;BME280;1003;48.002;7.788;2023-04-19T10:14:22;99268.94;;;14.23;100.00
5595;BME280;1003;48.002;7.788;2023-04-19T10:16:50;99264.56;;;13.54;100.00
5595;BME280;1003;48.002;7.788;2023-04-19T10:19:19;99267.00;;;13.58;100.00
5595;BME280;1003;48.002;7.788;2023-04-19T10:21:49;99267.88;;;13.12;100.00
5595;BME280;1003;48.002;7.788;2023-04-19T10:24:16;99262.16;;;13.04;100.00
5595;BME280;1003;48.002;7.788;2023-04-19T10:27:07;99271.41;;;13.87;100.00
5595;BME280;1003;48.002;7.788;2023-04-19T10:29:57;99244.56;;;13.45;100.00
5595;BME280;1003;48.002;7.788;2023-04-19T10:32:27;99240.69;;;14.06;100.00
5595;BME280;1003;48.002;7.788;2023-04-19T10:35:00;99216.16;;;14.11;100.00
5595;BME280;1003;48.002;7.788;2023-04-19T10:37:27;99186.19;;;13.96;100.00
5595;BME280;1003;48.002;7.788;2023-04-19T10:39:54;99179.97;;;13.72;100.00
5595;BME280;1003;48.002;7.788;2023-04-19T10:42:21;99176.59;;;13.35;100.00
5595;BME280;1003;48.002;7.788;2023-04-19T10:45:33;99159.56;;;14.15;100.00
5595;BME280;1003;48.002;7.788;2023-04-19T10:48:02;99147.84;;;13.78;100.00
5595;BME280;1003;48.002;7.788;2023-04-19T10:50:56;99135.19;;;13.43;100.00
5595;BME280;1003;48.002;7.788;2023-04-19T10:53:49;99137.44;;;13.90;100.00
5595;BME280;1003;48.002;7.788;2023-04-19T10:56:19;99133.56;;;14.11;100.00
5595;BME280;1003;48.002;7.788;2023-04-19T10:59:14;99111.88;;;14.03;100.00
5595;BME280;1003;48.002;7.788;2023-04-19T11:01:53;99109.25;;;13.73;100.00
5595;BME280;1003;48.002;7.788;2023-04-19T11:04:58;99103.13;;;14.16;100.00
5595;BME280;1003;48.002;7.788;2023-04-19T11:07:26;99101.91;;;13.97;100.00
5595;BME280;1003;48.002;7.788;2023-04-19T11:09:54;99097.13;;;14.18;100.00
5595;BME280;1003;48.002;7.788;2023-04-19T11:12:21;99093.56;;;13.95;100.00
5595;BME280;1003;48.002;7.788;2023-04-19T11:14:51;99101.75;;;14.03;100.00
5595;BME280;1003;48.002;7.788;2023-04-19T11:17:22;99116.81;;;14.07;100.00
5595;BME280;1003;48.002;7.788;2023-04-19T11:19:55;99131.94;;;13.75;100.00
5595;BME280;1003;48.002;7.788;2023-04-19T11:22:30;99146.88;;;13.84;100.00
5595;BME280;1003;48.002;7.788;2023-04-19T11:25:10;99142.69;;;14.17;100.00
5595;BME280;1003;48.002;7.788;2023-04-19T11:27:38;99138.69;;;14.41;100.00
5595;BME280;1003;48.002;7.788;2023-04-19T11:30:09;99124.13;;;14.18;100.00
5595;BME280;1003;48.002;7.788;2023-04-19T11:32:56;99126.81;;;14.12;100.00
5595;BME280;1003;48.002;7.788;2023-04-19T11:35:26;99122.44;;;13.84;100.00
5595;BME280;1003;48.002;7.788;2023-04-19T11:37:57;99140.22;;;13.80;100.00
5595;BME280;1003;48.002;7.788;2023-04-19T11:40:25;99131.47;;;13.95;100.00
5595;BME280;1003;48.002;7.788;2023-04-19T11:42:55;99139.72;;;14.34;100.00
5595;BME280;1003;48.002;7.788;2023-04-19T11:45:27;99142.59;;;14.20;100.00
5595;BME280;1003;48.002;7.788;2023-04-19T11:47:56;99133.34;;;14.19;100.00
5595;BME280;1003;48.002;7.788;2023-04-19T11:50:32;99134.25;;;13.82;100.00
5595;BME280;1003;48.002;7.788;2023-04-19T11:53:13;99138.94;;;13.98;100.00
5595;BME280;1003;48.002;7.788;2023-04-19T11:55:46;99140.53;;;14.02;100.00
5595;BME280;1003;48.002;7.788;2023-04-19T11:58:29;99146.72;;;14.24;100.00
5595;BME280;1003;48.002;7.788;2023-04-19T12:01:02;99126.22;;;14.02;100.00
5595;BME280;1003;48.002;7.788;2023-04-19T12:03:40;99132.47;;;14.20;100.00
5595;BME280;1003;48.002;7.788;2023-04-19T12:06:13;99125.16;;;14.42;100.00
5595;BME280;1003;48.002;7.788;2023-04-19T12:08:46;99118.91;;;14.57;100.00
5595;BME280;1003;48.002;7.788;2023-04-19T12:11:15;99108.78;;;14.58;100.00
5595;BME280;1003;48.002;7.788;2023-04-19T12:13:43;99104.38;;;14.32;100.00
5595;BME280;1003;48.002;7.788;2023-04-19T12:16:12;99109.19;;;14.73;100.00
5595;BME280;1003;48.002;7.788;2023-04-19T12:18:45;99104.88;;;14.76;100.00
5595;BME280;1003;48.002;7.788;2023-04-19T12:21:25;99094.41;;;14.88;100.00
5595;BME280;1003;48.002;7.788;2023-04-19T12:23:55;99086.28;;;15.33;100.00
5595;BME280;1003;48.002;7.788;2023-04-19T12:26:22;99075.81;;;15.45;100.00
5595;BME280;1003;48.002;7.788;2023-04-19T12:28:49;99054.31;;;15.31;100.00
5595;BME280;1003;48.002;7.788;2023-04-19T12:31:16;99042.34;;;15.36;100.00
5595;BME280;1003;48.002;7.788;2023-04-19T12:33:44;99028.56;;;15.44;100.00
5595;BME280;1003;48.002;7.788;2023-04-19T12:36:11;99036.66;;;15.54;100.00
5595;BME280;1003;48.002;7.788;2023-04-19T12:38:38;99038.16;;;15.61;100.00
5595;BME280;1003;48.002;7.788;2023-04-19T12:41:05;99014.00;;;15.76;100.00
5595;BME280;1003;48.002;7.788;2023-04-19T12:43:32;98987.78;;;15.52;100.00
5595;BME280;1003;48.002;7.788;2023-04-19T12:46:00;98990.13;;;15.83;100.00
5595;BME280;1003;48.002;7.788;2023-04-19T12:48:27;98985.31;;;15.49;100.00
5595;BME280;1003;48.002;7.788;2023-04-19T12:50:56;98970.72;;;15.57;100.00
5595;BME280;1003;48.002;7.788;2023-04-19T12:53:23;98967.19;;;15.86;100.00
5595;BME280;1003;48.002;7.788;2023-04-19T12:55:50;98939.94;;;15.43;100.00
5595;BME280;1003;48.002;7.788;2023-04-19T12:58:18;98917.13;;;15.19;100.00
5595;BME280;1003;48.002;7.788;2023-04-19T13:00:47;98914.63;;;15.43;100.00
5595;BME280;1003;48.002;7.788;2023-04-19T13:03:15;98922.16;;;15.94;100.00
5595;BME280;1003;48.002;7.788;2023-04-19T13:05:42;98892.06;;;15.85;100.00
5595;BME280;1003;48.002;7.788;2023-04-19T13:08:10;98869.78;;;15.70;100.00
5595;BME280;1003;48.002;7.788;2023-04-19T13:10:37;98850.13;;;15.77;100.00
5595;BME280;1003;48.002;7.788;2023-04-19T13:13:04;98838.78;;;16.09;100.00
5595;BME280;1003;48.002;7.788;2023-04-19T13:15:31;98824.78;;;15.77;100.00
5595;BME280;1003;48.002;7.788;2023-04-19T13:17:58;98823.03;;;15.55;100.00
5595;BME280;1003;48.002;7.788;2023-04-19T13:20:25;98835.22;;;15.69;100.00
5595;BME280;1003;48.002;7.788;2023-04-19T13:22:52;98843.09;;;15.36;100.00